Amboy, California
Current Conditions -  °F | °C
As of 9:56 PM on Saturday 22 Nov 2014 (Local Time) from KNXP Reporting Station
Clear Clear  
Wind Chill: 65°   Ceiling: Unl
Heat Index: 65°   Visibility: 10mi
Dew Point: 42°   Wind: 13mph
Humidity: 43%   Direction: 10°N
Pressure: 30"   Gusts: NA
Location:  34.56°N, 115.75°W
Report Text: KNXP 230556Z AUTO 01011KT 10SM CLR 18/06 A3000 RMK AO2 SLP910 T01830056 10206 20183 50009 $
Loading
Personal Weather Stations






























Interactive Weather Map New forecast layout! Learn more

10-Day Weather Forecast

Advertisements
Track Severe Weather on mobile